Time;durP1;ratioP1;P1;durP2;ratioP2;P2;SDS_P1;SDS_P2;PMS_P1;PMS_P2;Temp;Humidity;BMP_temperature;BMP_pressure;BME280_temperature;BME280_humidity;BME280_pressure;Samples;Min_cycle;Max_cycle;Signal;HPM_P1;HPM_P2
2022/09/28 00:01:24;;;;;;;8.82;8.32;;;;;;;-141.48;100.00;69781.59;5213729;28;20028;-76
2022/09/28 00:03:58;;;;;;;10.18;9.35;;;;;;;-141.48;100.00;69781.59;5231212;28;20025;-77
2022/09/28 00:06:29;;;;;;;11.63;9.10;;;;;;;-141.48;100.00;69781.59;5231667;28;20031;-78
2022/09/28 00:09:00;;;;;;;10.85;10.02;;;;;;;-141.48;100.00;69781.59;5211348;28;20028;-77
2022/09/28 00:11:32;;;;;;;10.93;10.02;;;;;;;-141.48;100.00;69781.59;5212302;28;20398;-78
2022/09/28 00:14:02;;;;;;;11.80;10.98;;;;;;;-141.48;100.00;69781.59;5229183;28;20487;-77
2022/09/28 00:16:39;;;;;;;12.63;11.60;;;;;;;-141.48;100.00;69781.59;5228408;28;20078;-77
2022/09/28 00:19:11;;;;;;;11.40;10.60;;;;;;;-141.48;100.00;69781.59;5228707;28;20025;-78
2022/09/28 00:21:41;;;;;;;10.38;9.68;;;;;;;-141.48;100.00;69781.59;5230042;28;20044;-78
2022/09/28 00:24:17;;;;;;;12.50;11.20;;;;;;;-141.48;100.00;69781.59;5229512;28;20021;-78
2022/09/28 00:26:48;;;;;;;12.20;10.85;;;;;;;-141.48;100.00;69781.59;5230464;28;20048;-78
2022/09/28 00:29:23;;;;;;;12.30;10.13;;;;;;;-141.48;100.00;69781.59;5229286;28;20025;-78
2022/09/28 00:31:58;;;;;;;14.90;10.13;;;;;;;-141.48;100.00;69781.59;5230254;28;20029;-78
2022/09/28 00:34:35;;;;;;;11.27;10.35;;;;;;;-141.48;100.00;69781.59;5217667;28;20394;-77
2022/09/28 00:37:07;;;;;;;9.68;8.85;;;;;;;-141.48;100.00;69781.59;5223100;28;20084;-77
2022/09/28 00:39:40;;;;;;;12.52;10.73;;;;;;;-141.48;100.00;69781.59;5208799;28;20022;-77
2022/09/28 00:42:19;;;;;;;12.95;12.05;;;;;;;-141.48;100.00;69781.59;5210420;28;20036;-77
2022/09/28 00:44:57;;;;;;;11.18;10.18;;;;;;;-141.48;100.00;69781.59;5212305;28;20027;-78
2022/09/28 00:47:48;;;;;;;12.25;10.93;;;;;;;-141.48;100.00;69781.59;5228052;28;20087;-78
2022/09/28 00:50:32;;;;;;;9.50;8.90;;;;;;;-141.48;100.00;69781.59;5192014;28;20027;-78
2022/09/28 00:53:27;;;;;;;9.15;8.40;;;;;;;-141.48;100.00;69781.59;5192771;28;20056;-77
2022/09/28 00:56:06;;;;;;;10.38;8.82;;;;;;;-141.48;100.00;69781.59;5211259;28;20037;-77
2022/09/28 00:58:47;;;;;;;8.45;7.85;;;;;;;-141.48;100.00;69781.59;5210744;28;20021;-79
2022/09/28 01:01:18;;;;;;;9.70;8.88;;;;;;;-141.48;100.00;69781.59;5210139;28;20048;-78
2022/09/28 01:03:48;;;;;;;10.18;8.82;;;;;;;-141.48;100.00;69781.59;5208784;28;20022;-78
2022/09/28 01:06:21;;;;;;;8.00;7.40;;;;;;;-141.48;100.00;69781.59;5212444;28;20495;-78
2022/09/28 01:08:57;;;;;;;7.95;7.03;;;;;;;-141.48;100.00;69781.59;5194640;28;20025;-79
2022/09/28 01:11:30;;;;;;;7.68;7.15;;;;;;;-141.48;100.00;69781.59;5192996;28;20101;-77
2022/09/28 01:14:02;;;;;;;10.18;9.27;;;;;;;-141.48;100.00;69781.59;5212583;28;20051;-77
2022/09/28 01:16:44;;;;;;;7.43;6.93;;;;;;;-141.48;100.00;69781.59;5194596;28;20018;-77
2022/09/28 01:19:42;;;;;;;8.48;7.75;;;;;;;-141.48;100.00;69781.59;5208047;28;20036;-77
2022/09/28 01:22:25;;;;;;;7.40;6.90;;;;;;;-141.48;100.00;69781.59;5195256;28;20552;-77
2022/09/28 01:25:07;;;;;;;7.47;6.97;;;;;;;-141.48;100.00;69781.59;5225100;28;20510;-78
2022/09/28 01:27:58;;;;;;;10.55;7.28;;;;;;;-141.48;100.00;69781.59;5211856;28;20024;-77
2022/09/28 01:30:40;;;;;;;10.25;9.18;;;;;;;-141.48;100.00;69781.59;5229260;28;20116;-77
2022/09/28 01:33:21;;;;;;;8.93;8.15;;;;;;;-141.48;100.00;69781.59;5212202;28;20054;-78
2022/09/28 01:36:01;;;;;;;8.63;8.00;;;;;;;-141.48;100.00;69781.59;5228104;28;20064;-77
2022/09/28 01:38:54;;;;;;;7.20;6.70;;;;;;;-141.48;100.00;69781.59;5229247;28;20025;-77
2022/09/28 01:41:29;;;;;;;10.35;7.25;;;;;;;-141.48;100.00;69781.59;5184682;28;20030;-77
2022/09/28 01:44:01;;;;;;;8.57;8.07;;;;;;;-141.48;100.00;69781.59;5189625;28;20537;-77
2022/09/28 01:46:44;;;;;;;9.40;8.40;;;;;;;-141.48;100.00;69781.59;5207723;28;20025;-77
2022/09/28 01:49:26;;;;;;;9.13;8.55;;;;;;;-141.48;100.00;69781.59;5207190;28;20032;-77
2022/09/28 01:52:10;;;;;;;9.90;9.18;;;;;;;-141.48;100.00;69781.59;5208055;28;20052;-77
2022/09/28 01:55:12;;;;;;;15.63;9.30;;;;;;;-141.48;100.00;69781.59;5207254;28;20025;-77
2022/09/28 01:57:49;;;;;;;10.20;9.35;;;;;;;-141.48;100.00;69781.59;5156300;28;20067;-77
2022/09/28 02:00:23;;;;;;;14.38;9.23;;;;;;;-141.48;100.00;69781.59;5207290;28;20018;-79
2022/09/28 02:03:05;;;;;;;9.52;8.63;;;;;;;-141.48;100.00;69781.59;5207794;28;20545;-77
2022/09/28 02:05:39;;;;;;;10.07;9.27;;;;;;;-141.48;100.00;69781.59;5206175;28;20049;-78
2022/09/28 02:08:18;;;;;;;14.93;10.70;;;;;;;-141.48;100.00;69781.59;5190551;28;20032;-77
2022/09/28 02:10:56;;;;;;;10.98;8.43;;;;;;;-141.48;100.00;69781.59;5192851;28;20037;-78
2022/09/28 02:13:31;;;;;;;15.10;12.80;;;;;;;-141.48;100.00;69781.59;5210050;28;20511;-79
2022/09/28 02:16:05;;;;;;;10.85;9.82;;;;;;;-141.48;100.00;69781.59;5211243;28;20052;-78
2022/09/28 02:18:35;;;;;;;12.57;10.48;;;;;;;-141.48;100.00;69781.59;5210914;28;20592;-78
2022/09/28 02:21:13;;;;;;;11.23;10.32;;;;;;;-141.48;100.00;69781.59;5193084;28;20025;-78
2022/09/28 02:24:02;;;;;;;12.48;11.02;;;;;;;-141.48;100.00;69781.59;5210888;28;20029;-78
2022/09/28 02:26:37;;;;;;;10.85;9.70;;;;;;;-141.48;100.00;69781.59;5210268;28;20044;-77
2022/09/28 02:29:08;;;;;;;11.32;10.27;;;;;;;-141.48;100.00;69781.59;5209492;28;20026;-78
2022/09/28 02:31:38;;;;;;;12.38;9.88;;;;;;;-141.48;100.00;69781.59;5212283;28;20029;-78
2022/09/28 02:34:09;;;;;;;13.32;10.40;;;;;;;-141.48;100.00;69781.59;5209899;28;20063;-78
2022/09/28 02:36:39;;;;;;;10.70;9.85;;;;;;;-141.48;100.00;69781.59;5212051;28;20045;-77
2022/09/28 02:39:14;;;;;;;11.73;10.45;;;;;;;-141.48;100.00;69781.59;5194209;28;20024;-79
2022/09/28 02:41:50;;;;;;;10.68;9.90;;;;;;;-141.48;100.00;69781.59;5212074;28;20033;-79
2022/09/28 02:44:30;;;;;;;12.40;11.40;;;;;;;-141.48;100.00;69781.59;5192233;28;20120;-78
2022/09/28 02:47:00;;;;;;;11.77;10.73;;;;;;;-141.48;100.00;69781.59;5211269;28;20036;-80
2022/09/28 02:49:45;;;;;;;16.08;12.13;;;;;;;-141.48;100.00;69781.59;5210471;28;20022;-78
2022/09/28 02:52:18;;;;;;;12.60;11.57;;;;;;;-141.48;100.00;69781.59;5211501;28;20030;-78
2022/09/28 02:55:07;;;;;;;11.05;10.15;;;;;;;-141.48;100.00;69781.59;5210618;28;20152;-77
2022/09/28 02:58:17;;;;;;;11.95;9.82;;;;;;;-141.48;100.00;69781.59;5211866;28;20536;-78
2022/09/28 03:01:13;;;;;;;11.23;10.23;;;;;;;-141.48;100.00;69781.59;5212189;28;20395;-78
2022/09/28 03:04:06;;;;;;;9.85;8.98;;;;;;;-141.48;100.00;69781.59;5209921;28;20035;-79
2022/09/28 03:06:44;;;;;;;12.77;11.88;;;;;;;-141.48;100.00;69781.59;5209301;28;20476;-76
2022/09/28 03:09:31;;;;;;;10.55;9.82;;;;;;;-141.48;100.00;69781.59;5208073;28;20519;-76
2022/09/28 03:12:12;;;;;;;11.20;10.07;;;;;;;-141.48;100.00;69781.59;5209316;28;20022;-77
2022/09/28 03:14:42;;;;;;;11.52;10.73;;;;;;;-141.48;100.00;69781.59;5190508;28;20025;-77
2022/09/28 03:17:13;;;;;;;13.77;11.20;;;;;;;-141.48;100.00;69781.59;5209340;28;20387;-78
2022/09/28 03:19:43;;;;;;;12.65;11.73;;;;;;;-141.48;100.00;69781.59;5208929;28;20056;-77
2022/09/28 03:22:13;;;;;;;11.77;10.70;;;;;;;-141.48;100.00;69781.59;5191945;28;20018;-77
2022/09/28 03:24:44;;;;;;;13.52;12.23;;;;;;;-141.48;100.00;69781.59;5190761;28;20030;-78
2022/09/28 03:27:14;;;;;;;12.98;11.90;;;;;;;-141.48;100.00;69781.59;5192114;28;20032;-78
2022/09/28 03:29:44;;;;;;;13.02;11.82;;;;;;;-141.48;100.00;69781.59;5191658;28;20029;-77
2022/09/28 03:32:15;;;;;;;13.48;12.18;;;;;;;-141.48;100.00;69781.59;5190419;28;20398;-78
2022/09/28 03:34:45;;;;;;;18.95;14.88;;;;;;;-141.48;100.00;69781.59;5208145;28;20025;-78
2022/09/28 03:37:16;;;;;;;14.68;13.07;;;;;;;-141.48;100.00;69781.59;5209583;28;20094;-77
2022/09/28 03:39:46;;;;;;;13.77;12.52;;;;;;;-141.48;100.00;69781.59;5209382;28;20032;-78
2022/09/28 03:42:16;;;;;;;14.30;13.20;;;;;;;-141.48;100.00;69781.59;5209452;28;20025;-78
2022/09/28 03:44:47;;;;;;;16.52;15.25;;;;;;;-141.48;100.00;69781.59;5208025;28;20049;-79
2022/09/28 03:47:18;;;;;;;18.63;16.10;;;;;;;-141.48;100.00;69781.59;5191677;28;20032;-78
2022/09/28 03:49:48;;;;;;;14.85;13.43;;;;;;;-141.48;100.00;69781.59;5210345;28;20093;-77
2022/09/28 03:52:19;;;;;;;15.38;14.05;;;;;;;-141.48;100.00;69781.59;5209362;28;20018;-78
2022/09/28 03:54:49;;;;;;;15.00;13.82;;;;;;;-141.48;100.00;69781.59;5208842;28;20028;-78
2022/09/28 03:57:19;;;;;;;15.82;14.45;;;;;;;-141.48;100.00;69781.59;5210653;28;20090;-78
2022/09/28 03:59:50;;;;;;;18.90;15.00;;;;;;;-141.48;100.00;69781.59;5194467;28;20387;-79
2022/09/28 04:02:20;;;;;;;16.13;14.75;;;;;;;-141.48;100.00;69781.59;5213082;28;20029;-78
2022/09/28 04:04:50;;;;;;;29.42;13.55;;;;;;;-141.48;100.00;69781.59;5211588;28;20030;-78
2022/09/28 04:07:21;;;;;;;14.82;13.65;;;;;;;-141.48;100.00;69781.59;5212616;28;20026;-78
2022/09/28 04:09:51;;;;;;;14.80;12.00;;;;;;;-141.48;100.00;69781.59;5212287;28;20533;-78
2022/09/28 04:12:22;;;;;;;17.48;12.40;;;;;;;-141.48;100.00;69781.59;5212961;28;20112;-78
2022/09/28 04:14:52;;;;;;;13.38;10.48;;;;;;;-141.48;100.00;69781.59;5211217;28;20098;-78
2022/09/28 04:17:23;;;;;;;11.95;11.05;;;;;;;-141.48;100.00;69781.59;5212213;28;20025;-78
2022/09/28 04:19:53;;;;;;;13.57;12.48;;;;;;;-141.48;100.00;69781.59;5212535;28;20083;-78
2022/09/28 04:22:23;;;;;;;15.02;13.60;;;;;;;-141.48;100.00;69781.59;5210883;28;20052;-78
2022/09/28 04:24:54;;;;;;;13.57;12.70;;;;;;;-141.48;100.00;69781.59;5228698;22;20041;-80
2022/09/28 04:30:13;;;;;;;17.63;13.55;;;;;;;-141.48;100.00;69781.59;5230104;28;20043;-80
2022/09/28 04:32:47;;;;;;;14.50;12.95;;;;;;;-141.48;100.00;69781.59;5228630;28;20025;-81
2022/09/28 04:35:17;;;;;;;11.88;11.07;;;;;;;-141.48;100.00;69781.59;5229133;28;20060;-80
2022/09/28 04:37:47;;;;;;;13.73;12.73;;;;;;;-141.48;100.00;69781.59;5229458;28;20036;-79
2022/09/28 04:40:18;;;;;;;13.95;12.98;;;;;;;-141.48;100.00;69781.59;5230438;28;20092;-80
2022/09/28 04:42:53;;;;;;;14.50;13.00;;;;;;;-141.48;100.00;69781.59;5229085;28;20032;-80
2022/09/28 04:45:27;;;;;;;17.23;15.55;;;;;;;-141.48;100.00;69781.59;5228601;28;20055;-80
2022/09/28 04:47:57;;;;;;;14.30;13.10;;;;;;;-141.48;100.00;69781.59;5213871;28;20021;-81
2022/09/28 04:50:28;;;;;;;18.63;14.70;;;;;;;-141.48;100.00;69781.59;5207404;28;20025;-80
2022/09/28 04:53:03;;;;;;;14.45;13.35;;;;;;;-141.48;100.00;69781.59;5205624;28;20025;-79
2022/09/28 04:55:33;;;;;;;14.43;13.10;;;;;;;-141.48;100.00;69781.59;5207007;28;20445;-80
2022/09/28 04:58:03;;;;;;;14.57;13.57;;;;;;;-141.48;100.00;69781.59;5207630;28;20064;-81
2022/09/28 05:00:34;;;;;;;19.70;14.55;;;;;;;-141.48;100.00;69781.59;5207644;28;20100;-81
2022/09/28 05:03:04;;;;;;;15.02;13.73;;;;;;;-141.48;100.00;69781.59;5206832;28;20029;-83
2022/09/28 05:05:35;;;;;;;15.25;14.05;;;;;;;-141.48;100.00;69781.59;5205219;28;20030;-82
2022/09/28 05:08:05;;;;;;;16.58;15.23;;;;;;;-141.48;100.00;69781.59;5207011;28;20033;-81
2022/09/28 05:10:39;;;;;;;14.43;13.13;;;;;;;-141.48;100.00;69781.59;5206253;28;20033;-81
2022/09/28 05:13:10;;;;;;;16.75;15.07;;;;;;;-141.48;100.00;69781.59;5199071;28;20085;-81
2022/09/28 05:15:41;;;;;;;16.02;14.73;;;;;;;-141.48;100.00;69781.59;5223586;28;20482;-82
2022/09/28 05:18:13;;;;;;;15.32;14.13;;;;;;;-141.48;100.00;69781.59;5226704;28;20016;-81
2022/09/28 05:20:43;;;;;;;15.80;14.10;;;;;;;-141.48;100.00;69781.59;5227279;28;20021;-81
2022/09/28 05:23:14;;;;;;;16.58;14.95;;;;;;;-141.48;100.00;69781.59;5226174;28;20039;-82
2022/09/28 05:25:44;;;;;;;16.30;14.23;;;;;;;-141.48;100.00;69781.59;5227141;28;20116;-81
2022/09/28 05:28:24;;;;;;;16.38;14.98;;;;;;;-141.48;100.00;69781.59;5228015;28;20048;-80
2022/09/28 05:31:03;;;;;;;16.33;14.77;;;;;;;-141.48;100.00;69781.59;5226366;28;20483;-81
2022/09/28 05:33:34;;;;;;;16.58;14.90;;;;;;;-141.48;100.00;69781.59;5225988;28;20035;-82
2022/09/28 05:36:08;;;;;;;17.50;15.95;;;;;;;-141.48;100.00;69781.59;5227539;28;20017;-82
2022/09/28 05:38:38;;;;;;;16.67;15.15;;;;;;;-141.48;100.00;69781.59;5227713;28;20029;-81
2022/09/28 05:41:09;;;;;;;18.60;16.75;;;;;;;-141.48;100.00;69781.59;5216122;28;20447;-80
2022/09/28 05:43:39;;;;;;;40.97;38.20;;;;;;;-141.48;100.00;69781.59;5207107;28;20108;-82
2022/09/28 05:46:09;;;;;;;22.77;21.08;;;;;;;-141.48;100.00;69781.59;5211107;28;20033;-81
2022/09/28 05:48:39;;;;;;;21.45;19.45;;;;;;;-141.48;100.00;69781.59;5210624;28;20260;-82
2022/09/28 05:51:10;;;;;;;20.85;18.05;;;;;;;-141.48;100.00;69781.59;5211233;28;20032;-81
2022/09/28 05:53:41;;;;;;;21.05;19.08;;;;;;;-141.48;100.00;69781.59;5208439;28;20538;-82
2022/09/28 05:56:11;;;;;;;19.98;17.90;;;;;;;-141.48;100.00;69781.59;5211307;28;20021;-82
2022/09/28 05:58:42;;;;;;;22.95;20.95;;;;;;;-141.48;100.00;69781.59;5209521;28;20056;-82
2022/09/28 06:01:12;;;;;;;19.42;17.67;;;;;;;-141.48;100.00;69781.59;5211099;28;20024;-82
2022/09/28 06:03:42;;;;;;;22.38;20.25;;;;;;;-141.48;100.00;69781.59;5208743;28;20154;-82
2022/09/28 06:06:13;;;;;;;18.27;16.88;;;;;;;-141.48;100.00;69781.59;5210953;28;20060;-82
2022/09/28 06:08:45;;;;;;;21.42;19.65;;;;;;;-141.48;100.00;69781.59;5210890;28;20025;-82
2022/09/28 06:11:15;;;;;;;18.90;17.40;;;;;;;-141.48;100.00;69781.59;5208652;28;20100;-81
2022/09/28 06:13:45;;;;;;;20.02;18.33;;;;;;;-141.48;100.00;69781.59;5208335;28;20071;-82
2022/09/28 06:16:16;;;;;;;19.85;18.25;;;;;;;-141.48;100.00;69781.59;5207652;28;20025;-82
2022/09/28 06:18:46;;;;;;;18.48;17.05;;;;;;;-141.48;100.00;69781.59;5210755;28;20037;-82
2022/09/28 06:21:17;;;;;;;18.15;16.75;;;;;;;-141.48;100.00;69781.59;5211790;28;20025;-81
2022/09/28 06:23:47;;;;;;;19.60;17.90;;;;;;;-141.48;100.00;69781.59;5229035;28;20025;-82
2022/09/28 06:26:18;;;;;;;16.95;15.57;;;;;;;-141.48;100.00;69781.59;5231437;28;20447;-82
2022/09/28 06:28:48;;;;;;;19.50;17.58;;;;;;;-141.48;100.00;69781.59;5231756;28;20029;-83
2022/09/28 06:31:22;;;;;;;18.20;16.70;;;;;;;-141.48;100.00;69781.59;5229778;28;20463;-81
2022/09/28 06:33:52;;;;;;;20.50;17.10;;;;;;;-141.48;100.00;69781.59;5230373;28;20028;-81
2022/09/28 06:36:23;;;;;;;18.83;17.33;;;;;;;-141.48;100.00;69781.59;5231487;28;20478;-82
2022/09/28 06:38:53;;;;;;;18.17;16.25;;;;;;;-141.48;100.00;69781.59;5228287;28;20029;-81
2022/09/28 06:41:23;;;;;;;15.40;14.15;;;;;;;-141.48;100.00;69781.59;5231802;28;20035;-80
2022/09/28 06:43:54;;;;;;;21.20;14.65;;;;;;;-141.48;100.00;69781.59;5229355;28;20498;-83
2022/09/28 06:46:24;;;;;;;15.50;14.38;;;;;;;-141.48;100.00;69781.59;5213088;28;20030;-82
2022/09/28 06:48:55;;;;;;;14.90;13.85;;;;;;;-141.48;100.00;69781.59;5210825;28;20021;-82
2022/09/28 06:51:25;;;;;;;16.70;15.18;;;;;;;-141.48;100.00;69781.59;5209810;28;20116;-82
2022/09/28 06:53:55;;;;;;;20.00;14.02;;;;;;;-141.48;100.00;69781.59;5209283;28;20026;-82
2022/09/28 06:56:26;;;;;;;14.35;13.35;;;;;;;-141.48;100.00;69781.59;5210363;28;20434;-82
2022/09/28 06:58:57;;;;;;;13.27;12.00;;;;;;;-141.48;100.00;69781.59;5210552;28;20048;-82
2022/09/28 07:01:27;;;;;;;13.02;12.02;;;;;;;-141.48;100.00;69781.59;5211377;28;20023;-83
2022/09/28 07:04:00;;;;;;;13.27;12.23;;;;;;;-141.48;100.00;69781.59;5210756;28;20044;-82
2022/09/28 07:06:30;;;;;;;11.38;10.48;;;;;;;-141.48;100.00;69781.59;5210403;28;20029;-86
2022/09/28 07:09:05;;;;;;;13.82;12.70;;;;;;;-141.48;100.00;69781.59;5209665;28;20343;-82
2022/09/28 07:11:38;;;;;;;11.02;10.20;;;;;;;-141.48;100.00;69781.59;5207614;28;20194;-80
2022/09/28 07:14:09;;;;;;;12.50;11.32;;;;;;;-141.48;100.00;69781.59;5206357;28;20036;-82
2022/09/28 07:16:40;;;;;;;10.73;9.93;;;;;;;-141.48;100.00;69781.59;5208730;28;20208;-82
2022/09/28 07:19:10;;;;;;;14.05;11.10;;;;;;;-141.48;100.00;69781.59;5207548;28;20144;-82
2022/09/28 07:21:40;;;;;;;10.35;9.65;;;;;;;-141.48;100.00;69781.59;5208090;28;20069;-82
2022/09/28 07:24:13;;;;;;;11.25;10.32;;;;;;;-141.48;100.00;69781.59;5206994;28;20264;-81
2022/09/28 07:26:44;;;;;;;10.15;9.25;;;;;;;-141.48;100.00;69781.59;5207732;28;20036;-81
2022/09/28 07:29:14;;;;;;;11.80;10.65;;;;;;;-141.48;100.00;69781.59;5206717;28;20025;-82
2022/09/28 07:31:44;;;;;;;11.43;10.63;;;;;;;-141.48;100.00;69781.59;5208191;28;20032;-82
2022/09/28 07:34:17;;;;;;;12.20;10.75;;;;;;;-141.48;100.00;69781.59;5207273;28;20379;-82
2022/09/28 07:36:47;;;;;;;14.27;10.95;;;;;;;-141.48;100.00;69781.59;5206969;28;20052;-82
2022/09/28 07:39:17;;;;;;;10.63;9.65;;;;;;;-141.48;100.00;69781.59;5208228;28;20037;-82
2022/09/28 07:41:48;;;;;;;11.65;10.73;;;;;;;-141.48;100.00;69781.59;5208426;28;20033;-82
2022/09/28 07:44:18;;;;;;;13.32;12.05;;;;;;;-141.48;100.00;69781.59;5207214;28;20028;-81
2022/09/28 07:46:49;;;;;;;10.40;8.85;;;;;;;-141.48;100.00;69781.59;5207928;28;20025;-82
2022/09/28 07:49:21;;;;;;;12.07;11.00;;;;;;;-141.48;100.00;69781.59;5208181;28;20053;-81
2022/09/28 07:51:52;;;;;;;10.48;9.77;;;;;;;-141.48;100.00;69781.59;5207915;28;20501;-83
2022/09/28 07:54:22;;;;;;;11.55;10.45;;;;;;;-141.48;100.00;69781.59;5207522;28;20121;-82
2022/09/28 07:56:52;;;;;;;12.27;11.05;;;;;;;-141.48;100.00;69781.59;5207516;28;20495;-82
2022/09/28 07:59:24;;;;;;;11.20;10.40;;;;;;;-141.48;100.00;69781.59;5208033;28;20085;-82
2022/09/28 08:01:54;;;;;;;10.73;10.02;;;;;;;-141.48;100.00;69781.59;5207322;28;20036;-82
2022/09/28 08:04:24;;;;;;;10.65;9.85;;;;;;;-141.48;100.00;69781.59;5207289;28;20021;-82
2022/09/28 08:06:55;;;;;;;11.63;10.73;;;;;;;-141.48;100.00;69781.59;5207637;28;20025;-83
2022/09/28 08:09:25;;;;;;;12.18;11.07;;;;;;;-141.48;100.00;69781.59;5208666;28;20029;-81
2022/09/28 08:11:58;;;;;;;9.98;9.10;;;;;;;-141.48;100.00;69781.59;5209797;28;20033;-80
2022/09/28 08:14:33;;;;;;;11.77;10.75;;;;;;;-141.48;100.00;69781.59;5209435;28;20044;-80
2022/09/28 08:17:04;;;;;;;10.38;9.73;;;;;;;-141.48;100.00;69781.59;5209879;28;20415;-80
2022/09/28 08:22:24;;;;;;;10.77;9.93;;;;;;;-141.48;100.00;69781.59;5212553;28;20076;-83
2022/09/28 08:24:54;;;;;;;11.15;10.05;;;;;;;-141.48;100.00;69781.59;5208935;28;20025;-81
2022/09/28 08:27:24;;;;;;;11.70;10.57;;;;;;;-141.48;100.00;69781.59;5206729;28;20014;-81
2022/09/28 08:29:55;;;;;;;9.52;8.70;;;;;;;-141.48;100.00;69781.59;5211645;28;20025;-81
2022/09/28 08:32:26;;;;;;;11.93;10.75;;;;;;;-141.48;100.00;69781.59;5208854;28;20026;-81
2022/09/28 08:34:56;;;;;;;9.32;8.55;;;;;;;-141.48;100.00;69781.59;5207938;28;20021;-84
2022/09/28 08:37:26;;;;;;;11.27;9.30;;;;;;;-141.48;100.00;69781.59;5208808;28;20038;-81
2022/09/28 08:39:57;;;;;;;10.45;9.73;;;;;;;-141.48;100.00;69781.59;5208790;28;20029;-82
2022/09/28 08:42:53;;;;;;;9.75;8.93;;;;;;;-141.48;100.00;69781.59;5209140;28;20026;-81
2022/09/28 08:45:27;;;;;;;8.95;8.13;;;;;;;-141.48;100.00;69781.59;5204057;28;20037;-81
2022/09/28 08:51:18;;;;;;;8.55;7.57;;;;;;;-141.48;100.00;69781.59;5207580;28;20060;-82
2022/09/28 08:53:52;;;;;;;8.70;8.07;;;;;;;-141.48;100.00;69781.59;5208148;28;20475;-82
2022/09/28 08:56:30;;;;;;;7.35;6.75;;;;;;;-141.48;100.00;69781.59;5208377;28;20037;-82
2022/09/28 08:59:04;;;;;;;7.80;7.10;;;;;;;-141.48;100.00;69781.59;5229985;28;20047;-81
2022/09/28 09:01:40;;;;;;;7.80;7.00;;;;;;;-141.48;100.00;69781.59;5229767;28;20028;-82
2022/09/28 09:04:12;;;;;;;5.80;5.05;;;;;;;-141.48;100.00;69781.59;5226802;28;20040;-82
2022/09/28 09:07:17;;;;;;;6.13;5.55;;;;;;;-141.48;100.00;69781.59;5227505;28;20175;-81
2022/09/28 09:09:50;;;;;;;6.03;5.63;;;;;;;-141.48;100.00;69781.59;5228790;28;20073;-82
2022/09/28 09:12:23;;;;;;;6.93;6.15;;;;;;;-141.48;100.00;69781.59;5227645;28;20101;-81
2022/09/28 09:15:03;;;;;;;6.95;6.55;;;;;;;-141.48;100.00;69781.59;5226868;28;20151;-82
2022/09/28 09:17:41;;;;;;;6.00;5.63;;;;;;;-141.48;100.00;69781.59;5225950;28;20071;-81
2022/09/28 09:20:24;;;;;;;5.78;4.85;;;;;;;-141.48;100.00;69781.59;5227011;28;20017;-81
2022/09/28 09:23:00;;;;;;;5.53;5.18;;;;;;;-141.48;100.00;69781.59;5228496;28;20024;-81
2022/09/28 09:25:45;;;;;;;5.20;4.75;;;;;;;-141.48;100.00;69781.59;5228029;28;20468;-81
2022/09/28 09:28:43;;;;;;;3.22;3.03;;;;;;;-141.48;100.00;69781.59;5227497;28;20028;-82
2022/09/28 09:31:43;;;;;;;4.25;3.47;;;;;;;-141.48;100.00;69781.59;5228702;28;20036;-81
2022/09/28 09:34:24;;;;;;;3.67;3.17;;;;;;;-141.48;100.00;69781.59;5227321;28;20017;-82
2022/09/28 09:37:18;;;;;;;3.63;3.42;;;;;;;-141.48;100.00;69781.59;5226381;28;20135;-81
2022/09/28 09:40:09;;;;;;;3.28;3.10;;;;;;;-141.48;100.00;69781.59;5225764;28;20025;-82
2022/09/28 09:43:01;;;;;;;3.33;3.13;;;;;;;-141.48;100.00;69781.59;5227870;28;20025;-82
2022/09/28 09:45:57;;;;;;;3.58;2.67;;;;;;;-141.48;100.00;69781.59;5226170;28;20115;-82
2022/09/28 09:48:38;;;;;;;4.38;3.60;;;;;;;-141.48;100.00;69781.59;5227376;28;20032;-82
2022/09/28 09:51:23;;;;;;;11.65;4.13;;;;;;;-141.48;100.00;69781.59;5227432;28;20063;-82
2022/09/28 09:54:02;;;;;;;3.50;3.40;;;;;;;-141.48;100.00;69781.59;5226228;28;20032;-82
2022/09/28 09:56:39;;;;;;;4.13;3.83;;;;;;;-141.48;100.00;69781.59;5227817;28;20020;-82
2022/09/28 10:05:10;;;;;;;3.30;3.10;;;;;;;-141.48;100.00;69781.59;5345748;22;20064;-82
2022/09/28 10:07:48;;;;;;;4.63;3.13;;;;;;;-141.48;100.00;69781.59;5206208;28;20558;-83
2022/09/28 10:10:28;;;;;;;3.80;3.50;;;;;;;-141.48;100.00;69781.59;5203927;28;20025;-83
2022/09/28 10:12:59;;;;;;;5.13;3.65;;;;;;;-141.48;100.00;69781.59;5206515;28;20108;-87
2022/09/28 10:15:32;;;;;;;8.52;3.38;;;;;;;-141.48;100.00;69781.59;5203948;28;20116;-86
2022/09/28 10:18:09;;;;;;;3.47;3.17;;;;;;;-141.48;100.00;69781.59;5203344;28;20076;-85
2022/09/28 10:20:42;;;;;;;3.35;2.65;;;;;;;-141.48;100.00;69781.59;5205041;28;20018;-87
2022/09/28 10:23:22;;;;;;;4.70;2.33;;;;;;;-141.48;100.00;69781.59;5213784;28;20034;-85
2022/09/28 10:25:58;;;;;;;2.95;2.75;;;;;;;-141.48;100.00;69781.59;5232392;22;20493;-86
2022/09/28 10:28:39;;;;;;;2.58;2.40;;;;;;;-141.48;100.00;69781.59;5210109;28;20032;-87
2022/09/28 10:31:52;;;;;;;6.20;3.20;;;;;;;-141.48;100.00;69781.59;5221871;28;20017;-87
2022/09/28 10:34:28;;;;;;;5.82;2.90;;;;;;;-141.48;100.00;69781.59;5170603;28;20041;-85
2022/09/28 10:37:03;;;;;;;4.60;1.92;;;;;;;-141.48;100.00;69781.59;5216378;28;20028;-79
2022/09/28 10:39:45;;;;;;;2.08;1.98;;;;;;;-141.48;100.00;69781.59;5216701;28;20099;-81
2022/09/28 10:42:25;;;;;;;6.88;2.95;;;;;;;-141.48;100.00;69781.59;5216980;28;20033;-81
2022/09/28 10:45:02;;;;;;;7.40;2.60;;;;;;;-141.48;100.00;69781.59;5216928;28;20029;-82
2022/09/28 10:47:34;;;;;;;12.98;8.82;;;;;;;-141.48;100.00;69781.59;5218206;28;20022;-81
2022/09/28 10:50:19;;;;;;;3.33;2.67;;;;;;;-141.48;100.00;69781.59;5199658;28;20083;-80
2022/09/28 10:52:50;;;;;;;3.30;2.88;;;;;;;-141.48;100.00;69781.59;5200387;28;20030;-81
2022/09/28 10:55:23;;;;;;;4.78;2.90;;;;;;;-141.48;100.00;69781.59;5198171;28;20035;-80
2022/09/28 10:57:53;;;;;;;2.05;1.88;;;;;;;-141.48;100.00;69781.59;5215976;28;20025;-81
2022/09/28 11:00:40;;;;;;;3.05;2.72;;;;;;;-141.48;100.00;69781.59;5203916;28;20022;-81
2022/09/28 11:03:25;;;;;;;2.78;2.67;;;;;;;-141.48;100.00;69781.59;5174492;28;20027;-80
2022/09/28 11:06:06;;;;;;;1.98;1.88;;;;;;;-141.48;100.00;69781.59;5175902;28;20044;-80
2022/09/28 11:08:40;;;;;;;2.15;2.05;;;;;;;-141.48;100.00;69781.59;5174557;28;20022;-80
2022/09/28 11:11:18;;;;;;;3.08;2.88;;;;;;;-141.48;100.00;69781.59;5174761;28;20484;-79
2022/09/28 11:13:51;;;;;;;5.68;4.18;;;;;;;-141.48;100.00;69781.59;5175352;28;20256;-80
2022/09/28 11:16:27;;;;;;;5.05;4.28;;;;;;;-141.48;100.00;69781.59;5174507;28;20057;-81
2022/09/28 11:19:03;;;;;;;6.97;4.43;;;;;;;-141.48;100.00;69781.59;5176391;28;20090;-79
2022/09/28 11:21:42;;;;;;;4.05;3.80;;;;;;;-141.48;100.00;69781.59;5175794;28;20042;-80
2022/09/28 11:24:22;;;;;;;18.55;3.38;;;;;;;-141.48;100.00;69781.59;5177204;28;20026;-80
2022/09/28 11:26:57;;;;;;;4.90;4.50;;;;;;;-141.48;100.00;69781.59;5175875;28;20030;-80
2022/09/28 11:29:41;;;;;;;4.32;4.03;;;;;;;-141.48;100.00;69781.59;5175271;28;20385;-80
2022/09/28 11:32:13;;;;;;;7.85;3.40;;;;;;;-141.48;100.00;69781.59;5158103;28;20140;-80
2022/09/28 11:34:50;;;;;;;3.65;3.45;;;;;;;-141.48;100.00;69781.59;5173364;28;20030;-80
2022/09/28 11:37:39;;;;;;;6.10;4.90;;;;;;;-141.48;100.00;69781.59;5174637;28;20030;-79
2022/09/28 11:40:25;;;;;;;5.70;5.30;;;;;;;-141.48;100.00;69781.59;5174913;28;20022;-80
2022/09/28 11:43:09;;;;;;;3.85;3.58;;;;;;;-141.48;100.00;69781.59;5175450;28;20023;-81
2022/09/28 11:46:02;;;;;;;3.63;3.17;;;;;;;-141.48;100.00;69781.59;5175211;28;20026;-81
2022/09/28 11:48:44;;;;;;;12.15;3.65;;;;;;;-141.48;100.00;69781.59;5175155;28;20407;-81
2022/09/28 11:51:22;;;;;;;3.78;3.47;;;;;;;-141.48;100.00;69781.59;5174954;28;20082;-80